createdAt,value
2022-09-20T00:04:49.803Z,8.20
2022-09-20T00:09:53.255Z,8.20
2022-09-20T00:14:56.815Z,8.16
2022-09-20T00:19:58.485Z,8.21
2022-09-20T00:25:00.217Z,8.22
2022-09-20T00:30:01.881Z,8.27
2022-09-20T00:35:10.895Z,8.36
2022-09-20T00:40:14.958Z,8.36
2022-09-20T00:45:24.313Z,8.34
2022-09-20T00:50:40.499Z,8.38
2022-09-20T00:55:45.538Z,8.39
2022-09-20T01:00:47.191Z,8.39
2022-09-20T01:05:50.261Z,8.31
2022-09-20T01:10:52.421Z,8.29
2022-09-20T01:15:54.082Z,8.31
2022-09-20T01:20:55.715Z,8.36
2022-09-20T01:26:25.753Z,8.41
2022-09-20T01:31:36.716Z,8.46
2022-09-20T01:36:44.145Z,8.52
2022-09-20T01:41:48.938Z,8.58
2022-09-20T01:46:53.089Z,8.62
2022-09-20T01:52:15.690Z,8.71
2022-09-20T01:57:41.044Z,8.78
2022-09-20T02:02:49.836Z,8.68
2022-09-20T02:08:07.568Z,8.72
2022-09-20T02:13:31.609Z,8.73
2022-09-20T02:18:56.865Z,8.62
2022-09-20T02:24:43.767Z,8.84
2022-09-20T02:29:51.478Z,8.87
2022-09-20T02:35:17.104Z,8.93
2022-09-20T02:40:45.586Z,9.00
2022-09-20T02:46:00.225Z,8.98
2022-09-20T02:51:12.407Z,9.08
2022-09-20T02:56:35.737Z,9.09
2022-09-20T03:01:56.309Z,9.11
2022-09-20T03:07:06.081Z,9.03
2022-09-20T03:12:18.289Z,9.22
2022-09-20T03:17:28.815Z,9.16
2022-09-20T03:22:48.803Z,9.24
2022-09-20T03:28:24.298Z,9.18
2022-09-20T03:33:50.831Z,9.10
2022-09-20T03:39:11.288Z,9.07
2022-09-20T03:44:38.764Z,9.01
2022-09-20T03:49:46.346Z,9.07
2022-09-20T03:54:53.963Z,8.95
2022-09-20T04:00:13.733Z,8.85
2022-09-20T04:05:18.348Z,9.01
2022-09-20T04:10:59.624Z,9.06
2022-09-20T04:16:10.527Z,9.04
2022-09-20T04:21:29.015Z,8.93
2022-09-20T04:26:32.789Z,8.95
2022-09-20T04:31:49.771Z,9.06
2022-09-20T04:37:06.113Z,9.11
2022-09-20T04:42:54.604Z,9.01
2022-09-20T04:48:23.018Z,9.10
2022-09-20T04:53:46.251Z,9.19
2022-09-20T04:59:07.809Z,9.13
2022-09-20T05:04:49.087Z,9.06
2022-09-20T05:10:28.748Z,9.02
2022-09-20T05:15:50.758Z,9.01
2022-09-20T05:20:57.311Z,9.09
2022-09-20T05:26:27.801Z,9.00
2022-09-20T05:31:38.896Z,8.99
2022-09-20T05:37:12.512Z,8.93
2022-09-20T05:42:43.917Z,8.88
2022-09-20T05:48:04.543Z,8.98
2022-09-20T05:53:34.800Z,9.10
2022-09-20T05:58:48.492Z,9.40
2022-09-20T06:04:22.704Z,9.37
2022-09-20T06:09:48.505Z,9.50
2022-09-20T06:15:12.053Z,9.36
2022-09-20T06:20:19.232Z,9.20
2022-09-20T06:25:32.321Z,9.30
2022-09-20T06:30:39.652Z,9.38
2022-09-20T06:36:25.761Z,9.44
2022-09-20T06:41:28.063Z,9.36
2022-09-20T06:46:34.337Z,9.44
2022-09-20T06:51:37.477Z,9.48
2022-09-20T06:56:39.123Z,9.47
2022-09-20T07:01:41.374Z,9.57
2022-09-20T07:06:43.029Z,9.76
2022-09-20T07:11:46.120Z,9.78
2022-09-20T07:16:47.782Z,9.67
2022-09-20T07:21:49.468Z,9.78
2022-09-20T07:27:01.442Z,9.94
2022-09-20T07:32:03.192Z,10.12
2022-09-20T07:37:05.546Z,10.20
2022-09-20T07:42:07.576Z,10.12
2022-09-20T07:47:10.479Z,10.25
2022-09-20T07:52:12.098Z,10.30
2022-09-20T07:57:13.770Z,10.48
2022-09-20T08:02:15.737Z,10.65
2022-09-20T08:07:17.538Z,10.76
2022-09-20T08:17:41.378Z,10.80
2022-09-20T08:22:43.359Z,10.50
2022-09-20T08:27:45.348Z,10.67
2022-09-20T08:32:47.024Z,10.82
2022-09-20T08:37:48.822Z,10.81
2022-09-20T08:42:50.467Z,10.83
2022-09-20T08:47:58.522Z,11.01
2022-09-20T08:53:04.883Z,11.00
2022-09-20T08:58:09.191Z,11.03
2022-09-20T09:03:12.155Z,11.10
2022-09-20T09:08:18.937Z,11.17
2022-09-20T09:13:30.992Z,11.29
2022-09-20T09:18:35.049Z,11.32
2022-09-20T09:23:41.661Z,11.61
2022-09-20T09:28:44.065Z,11.68
2022-09-20T09:33:47.343Z,11.75
2022-09-20T09:38:49.292Z,11.80
2022-09-20T09:44:22.572Z,11.90
2022-09-20T09:49:36.406Z,12.15
2022-09-20T09:54:39.536Z,12.41
2022-09-20T09:59:57.893Z,12.46
2022-09-20T10:05:25.164Z,12.28
2022-09-20T10:11:00.835Z,12.33
2022-09-20T10:16:46.547Z,12.30
2022-09-20T10:22:17.767Z,12.50
2022-09-20T10:27:28.696Z,12.79
2022-09-20T10:32:51.824Z,12.94
2022-09-20T10:38:08.416Z,13.05
2022-09-20T10:43:17.014Z,13.18
2022-09-20T10:48:32.396Z,13.35
2022-09-20T10:53:41.346Z,13.50
2022-09-20T10:59:04.216Z,13.30
2022-09-20T11:04:29.694Z,13.20
2022-09-20T11:09:35.056Z,13.18
2022-09-20T11:14:41.908Z,13.13
2022-09-20T11:20:07.257Z,13.18
2022-09-20T11:25:29.786Z,13.28
2022-09-20T11:30:32.164Z,13.32
2022-09-20T11:35:34.951Z,13.44
2022-09-20T11:40:43.120Z,13.71
2022-09-20T11:45:44.900Z,13.96
2022-09-20T11:51:05.392Z,13.97
2022-09-20T11:56:20.628Z,13.96
2022-09-20T12:01:28.260Z,13.74
2022-09-20T12:06:33.223Z,13.76
2022-09-20T12:11:36.177Z,14.32
2022-09-20T12:16:44.524Z,14.63
2022-09-20T12:22:15.925Z,15.38
2022-09-20T12:27:43.929Z,16.17
2022-09-20T12:32:47.496Z,16.91
2022-09-20T12:37:49.125Z,17.11
2022-09-20T12:42:56.712Z,17.84
2022-09-20T12:47:58.347Z,18.16
2022-09-20T12:53:04.190Z,17.29
2022-09-20T12:58:13.331Z,16.61
2022-09-20T13:03:14.767Z,16.44
2022-09-20T13:08:21.790Z,15.88
2022-09-20T13:13:33.660Z,15.44
2022-09-20T13:18:35.362Z,15.09
2022-09-20T13:23:55.350Z,14.82
2022-09-20T13:28:59.066Z,14.39
2022-09-20T13:34:22.121Z,13.74
2022-09-20T13:39:28.860Z,13.23
2022-09-20T13:44:33.483Z,13.09
2022-09-20T13:49:35.108Z,12.88
2022-09-20T13:54:36.720Z,12.60
2022-09-20T13:59:45.469Z,12.35
2022-09-20T14:04:47.062Z,12.05
2022-09-20T14:09:48.675Z,11.73
2022-09-20T14:14:50.868Z,11.69
2022-09-20T14:19:54.388Z,12.12
2022-09-20T14:24:58.285Z,12.23
2022-09-20T14:29:59.963Z,12.30
2022-09-20T14:35:03.597Z,12.44
2022-09-20T14:40:15.950Z,12.21
2022-09-20T14:45:23.403Z,12.20
2022-09-20T14:50:26.181Z,12.25
2022-09-20T14:55:36.470Z,12.38
2022-09-20T15:00:57.846Z,12.42
2022-09-20T15:05:59.521Z,12.56
2022-09-20T15:11:01.311Z,12.46
2022-09-20T15:16:03.030Z,13.03
2022-09-20T15:21:05.777Z,13.57
2022-09-20T15:26:07.533Z,13.31
2022-09-20T15:31:09.474Z,13.10
2022-09-20T15:36:11.398Z,13.01
2022-09-20T15:41:13.048Z,13.51
2022-09-20T15:46:17.593Z,13.89
2022-09-20T15:51:19.257Z,14.29
2022-09-20T15:56:27.757Z,14.71
2022-09-20T16:01:42.755Z,15.07
2022-09-20T16:06:45.541Z,15.12
2022-09-20T16:11:47.852Z,15.27
2022-09-20T16:16:49.526Z,15.20
2022-09-20T16:21:57.657Z,14.88
2022-09-20T16:27:03.582Z,14.73
2022-09-20T16:32:05.409Z,14.52
2022-09-20T16:37:11.709Z,14.31
2022-09-20T16:42:13.432Z,14.29
2022-09-20T16:47:22.031Z,14.10
2022-09-20T16:52:26.388Z,14.00
2022-09-20T16:57:28.799Z,13.90
2022-09-20T17:02:30.410Z,13.93
2022-09-20T17:07:33.645Z,13.55
2022-09-20T17:12:41.408Z,13.41
2022-09-20T17:17:43.034Z,13.25
2022-09-20T17:22:44.651Z,13.12
2022-09-20T17:27:47.855Z,12.96
2022-09-20T17:32:50.782Z,12.77
2022-09-20T17:37:52.378Z,12.55
2022-09-20T17:42:55.111Z,12.41
2022-09-20T17:47:57.495Z,12.12
2022-09-20T17:52:59.221Z,11.89
2022-09-20T17:58:01.045Z,11.77
2022-09-20T18:03:04.870Z,11.60
2022-09-20T18:08:06.718Z,11.55
2022-09-20T18:13:08.335Z,11.42
2022-09-20T18:18:09.952Z,11.36
2022-09-20T18:23:11.719Z,11.24
2022-09-20T18:28:13.326Z,11.23
2022-09-20T18:33:17.969Z,11.04
2022-09-20T18:38:20.768Z,10.95
2022-09-20T18:43:22.360Z,10.78
2022-09-20T18:48:32.155Z,10.67
2022-09-20T18:53:38.219Z,10.61
2022-09-20T18:58:40.038Z,10.49
2022-09-20T19:03:47.317Z,10.38
2022-09-20T19:09:00.291Z,10.22
2022-09-20T19:14:05.504Z,10.15
2022-09-20T19:19:22.404Z,9.99
2022-09-20T19:24:56.689Z,9.90
2022-09-20T19:29:58.564Z,9.87
2022-09-20T19:35:01.560Z,9.84
2022-09-20T19:40:26.105Z,9.68
2022-09-20T19:45:38.353Z,9.70
2022-09-20T19:50:42.103Z,9.65
2022-09-20T19:55:46.208Z,9.55
2022-09-20T20:00:47.973Z,9.47
2022-09-20T20:05:56.088Z,9.45
2022-09-20T20:11:03.126Z,9.42
2022-09-20T20:16:06.268Z,9.40
2022-09-20T20:21:13.230Z,9.47
2022-09-20T20:26:24.853Z,9.47
2022-09-20T20:31:26.529Z,9.39
2022-09-20T20:36:28.220Z,9.38
2022-09-20T20:41:31.586Z,9.29
2022-09-20T20:46:34.791Z,9.25
2022-09-20T20:51:36.490Z,9.20
2022-09-20T20:56:38.106Z,9.15
2022-09-20T21:01:44.982Z,9.11
2022-09-20T21:06:46.807Z,9.11
2022-09-20T21:11:48.520Z,9.03
2022-09-20T21:16:51.183Z,8.96
2022-09-20T21:21:52.854Z,8.94
2022-09-20T21:26:54.450Z,8.83
2022-09-20T21:31:56.037Z,8.79
2022-09-20T21:36:57.675Z,8.70
2022-09-20T21:41:59.628Z,8.48
2022-09-20T21:47:01.280Z,8.37
2022-09-20T21:52:03.513Z,8.34
2022-09-20T21:57:05.831Z,8.29
2022-09-20T22:02:07.546Z,8.29
2022-09-20T22:07:09.865Z,8.31
2022-09-20T22:12:11.468Z,8.26
2022-09-20T22:17:13.100Z,8.19
2022-09-20T22:22:15.031Z,8.19
2022-09-20T22:27:16.663Z,8.10
2022-09-20T22:32:18.276Z,8.11
2022-09-20T22:37:19.943Z,8.10
2022-09-20T22:42:21.574Z,8.14
2022-09-20T22:47:23.198Z,8.21
2022-09-20T22:52:24.833Z,8.18
2022-09-20T22:57:26.755Z,8.13
2022-09-20T23:02:28.381Z,8.02
2022-09-20T23:07:30.859Z,7.96
2022-09-20T23:12:32.464Z,7.92
2022-09-20T23:17:34.080Z,7.91
2022-09-20T23:22:35.705Z,7.87
2022-09-20T23:27:37.361Z,7.83
2022-09-20T23:32:38.980Z,7.80
2022-09-20T23:37:40.650Z,7.73
2022-09-20T23:42:42.285Z,7.72
2022-09-20T23:47:47.467Z,7.69
2022-09-20T23:52:49.092Z,7.66
2022-09-20T23:57:57.400Z,7.63
